createdAt,value
2018-10-18T00:00:24.063Z,16.50
2018-10-18T00:02:57.800Z,16.50
2018-10-18T00:05:31.342Z,16.50
2018-10-18T00:08:04.906Z,16.50
2018-10-18T00:10:38.455Z,16.50
2018-10-18T00:13:11.875Z,16.50
2018-10-18T00:15:45.893Z,16.50
2018-10-18T00:18:19.391Z,16.50
2018-10-18T00:20:53.186Z,16.50
2018-10-18T00:23:26.760Z,16.50
2018-10-18T00:26:00.356Z,16.40
2018-10-18T00:28:33.985Z,16.40
2018-10-18T00:31:07.466Z,16.40
2018-10-18T00:33:40.930Z,16.50
2018-10-18T00:36:14.915Z,16.40
2018-10-18T00:38:54.738Z,16.40
2018-10-18T00:41:28.306Z,16.40
2018-10-18T00:44:02.016Z,16.30
2018-10-18T00:46:41.783Z,16.30
2018-10-18T00:49:15.205Z,16.30
2018-10-18T00:51:48.866Z,16.30
2018-10-18T00:54:23.350Z,16.30
2018-10-18T00:57:03.371Z,16.20
2018-10-18T00:59:37.776Z,16.20
2018-10-18T01:02:12.243Z,16.20
2018-10-18T01:04:45.795Z,16.10
2018-10-18T01:07:19.482Z,16.10
2018-10-18T01:09:52.994Z,16.10
2018-10-18T01:12:26.838Z,16.10
2018-10-18T01:15:00.357Z,16.10
2018-10-18T01:17:34.954Z,16.00
2018-10-18T01:20:14.951Z,16.00
2018-10-18T01:22:48.550Z,16.00
2018-10-18T01:25:22.041Z,16.00
2018-10-18T01:27:55.584Z,16.00
2018-10-18T01:30:29.219Z,16.00
2018-10-18T01:33:03.817Z,15.90
2018-10-18T01:35:37.409Z,15.90
2018-10-18T01:38:10.979Z,16.00
2018-10-18T01:40:44.436Z,15.90
2018-10-18T01:43:18.104Z,15.90
2018-10-18T01:45:51.574Z,15.80
2018-10-18T01:48:25.163Z,15.80
2018-10-18T01:50:58.715Z,15.90
2018-10-18T01:53:37.416Z,15.90
2018-10-18T01:56:10.922Z,15.80
2018-10-18T01:58:44.358Z,15.80
2018-10-18T02:01:18.098Z,15.80
2018-10-18T02:03:51.745Z,15.80
2018-10-18T02:06:25.598Z,15.80
2018-10-18T02:08:59.101Z,15.80
2018-10-18T02:11:32.727Z,15.70
2018-10-18T02:14:06.514Z,15.70
2018-10-18T02:16:40.052Z,15.70
2018-10-18T02:19:14.751Z,15.50
2018-10-18T02:21:48.276Z,15.40
2018-10-18T02:24:21.806Z,15.40
2018-10-18T02:26:55.519Z,15.30
2018-10-18T02:29:29.019Z,15.20
2018-10-18T02:32:03.788Z,15.20
2018-10-18T02:34:37.303Z,15.10
2018-10-18T02:37:10.883Z,15.10
2018-10-18T02:39:44.396Z,15.00
2018-10-18T02:42:18.886Z,15.00
2018-10-18T02:44:52.354Z,14.90
2018-10-18T02:47:25.817Z,14.90
2018-10-18T02:50:06.168Z,14.80
2018-10-18T02:52:46.150Z,14.80
2018-10-18T02:55:19.793Z,14.80
2018-10-18T02:57:53.240Z,14.70
2018-10-18T03:00:26.801Z,14.70
2018-10-18T03:03:00.249Z,14.70
2018-10-18T03:05:33.675Z,14.60
2018-10-18T03:08:08.254Z,14.60
2018-10-18T03:10:48.157Z,14.60
2018-10-18T03:13:21.714Z,14.60
2018-10-18T03:16:01.758Z,14.60
2018-10-18T03:18:35.063Z,14.50
2018-10-18T03:21:08.628Z,14.50
2018-10-18T03:23:42.127Z,14.40
2018-10-18T03:26:15.795Z,14.50
2018-10-18T03:28:49.172Z,14.60
2018-10-18T03:31:22.776Z,14.60
2018-10-18T03:33:56.422Z,14.60
2018-10-18T03:36:30.132Z,14.50
2018-10-18T03:39:06.754Z,14.50
2018-10-18T03:41:40.313Z,14.40
2018-10-18T03:44:13.899Z,14.30
2018-10-18T03:46:47.464Z,14.20
2018-10-18T03:49:21.011Z,14.30
2018-10-18T03:51:54.574Z,14.30
2018-10-18T03:54:28.025Z,14.30
2018-10-18T03:57:01.639Z,14.30
2018-10-18T03:59:35.222Z,14.30
2018-10-18T04:02:08.533Z,14.30
2018-10-18T04:04:42.166Z,14.30
2018-10-18T04:07:15.763Z,14.20
2018-10-18T04:09:49.314Z,14.10
2018-10-18T04:12:23.060Z,14.00
2018-10-18T04:14:56.585Z,13.90
2018-10-18T04:17:36.584Z,13.90
2018-10-18T04:20:11.162Z,13.90
2018-10-18T04:22:44.647Z,13.80
2018-10-18T04:25:18.137Z,13.70
2018-10-18T04:27:51.489Z,13.70
2018-10-18T04:30:26.097Z,13.70
2018-10-18T04:33:05.976Z,13.70
2018-10-18T04:35:39.478Z,13.70
2018-10-18T04:38:13.014Z,13.60
2018-10-18T04:40:46.663Z,13.60
2018-10-18T04:43:20.261Z,13.60
2018-10-18T04:45:53.705Z,13.60
2018-10-18T04:48:28.385Z,13.70
2018-10-18T04:51:08.262Z,13.70
2018-10-18T04:53:48.165Z,13.80
2018-10-18T04:56:21.702Z,13.80
2018-10-18T04:58:55.367Z,13.80
2018-10-18T05:01:28.737Z,13.70
2018-10-18T05:04:02.345Z,13.70
2018-10-18T05:06:35.998Z,13.70
2018-10-18T05:09:09.500Z,13.70
2018-10-18T05:11:43.214Z,13.70
2018-10-18T05:14:16.758Z,13.60
2018-10-18T05:16:50.221Z,13.70
2018-10-18T05:19:23.752Z,13.70
2018-10-18T05:21:57.333Z,13.70
2018-10-18T05:24:30.745Z,13.70
2018-10-18T05:27:10.580Z,13.70
2018-10-18T05:29:44.095Z,13.70
2018-10-18T05:32:17.643Z,13.80
2018-10-18T05:34:57.546Z,13.80
2018-10-18T05:37:31.207Z,13.80
2018-10-18T05:40:11.191Z,13.80
2018-10-18T05:42:44.688Z,13.80
2018-10-18T05:45:19.262Z,13.80
2018-10-18T05:47:52.842Z,13.80
2018-10-18T05:50:26.361Z,13.80
2018-10-18T05:53:06.248Z,13.70
2018-10-18T05:55:39.736Z,13.70
2018-10-18T05:58:14.141Z,13.80
2018-10-18T06:00:54.032Z,13.80
2018-10-18T06:03:27.544Z,13.80
2018-10-18T06:06:01.312Z,13.70
2018-10-18T06:08:41.220Z,13.70
2018-10-18T06:11:23.080Z,13.70
2018-10-18T06:13:57.648Z,13.70
2018-10-18T06:16:31.460Z,13.70
2018-10-18T06:19:06.285Z,13.70
2018-10-18T06:21:39.862Z,13.70
2018-10-18T06:24:13.353Z,13.70
2018-10-18T06:26:47.925Z,13.70
2018-10-18T06:29:21.570Z,13.70
2018-10-18T06:31:55.223Z,13.70
2018-10-18T06:34:28.981Z,13.70
2018-10-18T06:37:08.762Z,13.80
2018-10-18T06:39:48.578Z,13.80
2018-10-18T06:42:23.217Z,13.80
2018-10-18T06:45:03.365Z,13.70
2018-10-18T06:47:37.130Z,13.70
2018-10-18T06:50:13.164Z,13.80
2018-10-18T06:52:53.259Z,13.80
2018-10-18T06:55:26.905Z,13.80
2018-10-18T06:58:06.777Z,13.70
2018-10-18T07:00:40.389Z,13.70
2018-10-18T07:03:13.922Z,13.70
2018-10-18T07:05:47.487Z,13.80
2018-10-18T07:08:21.175Z,13.80
2018-10-18T07:11:01.175Z,13.90
2018-10-18T07:13:34.792Z,13.90
2018-10-18T07:16:14.621Z,13.90
2018-10-18T07:18:48.002Z,13.90
2018-10-18T07:21:21.585Z,13.90
2018-10-18T07:23:55.131Z,13.90
2018-10-18T07:26:35.037Z,13.90
2018-10-18T07:29:09.375Z,14.00
2018-10-18T07:31:43.028Z,14.00
2018-10-18T07:34:22.965Z,14.00
2018-10-18T07:36:56.643Z,14.00
2018-10-18T07:39:36.625Z,14.10
2018-10-18T07:42:10.322Z,14.20
2018-10-18T07:44:43.879Z,14.30
2018-10-18T07:47:17.501Z,14.50
2018-10-18T07:49:51.762Z,14.60
2018-10-18T07:52:25.369Z,14.70
2018-10-18T07:54:59.090Z,14.80
2018-10-18T07:57:32.729Z,14.90
2018-10-18T08:00:08.593Z,15.00
2018-10-18T08:02:42.845Z,15.00
2018-10-18T08:05:16.388Z,15.00
2018-10-18T08:07:50.713Z,14.90
2018-10-18T08:10:30.758Z,14.80
2018-10-18T08:13:10.728Z,14.80
2018-10-18T08:15:45.180Z,14.70
2018-10-18T08:18:25.016Z,14.80
2018-10-18T08:20:58.533Z,14.80
2018-10-18T08:23:31.954Z,14.80
2018-10-18T08:26:05.513Z,14.80
2018-10-18T08:28:38.840Z,14.80
2018-10-18T08:31:12.565Z,14.90
2018-10-18T08:33:45.965Z,14.90
2018-10-18T08:36:19.493Z,15.00
2018-10-18T08:38:59.333Z,15.00
2018-10-18T08:41:32.888Z,15.00
2018-10-18T08:44:12.885Z,15.00
2018-10-18T08:46:46.206Z,15.20
2018-10-18T08:49:20.747Z,15.30
2018-10-18T08:51:55.217Z,15.40
2018-10-18T08:54:28.709Z,15.40
2018-10-18T08:57:02.995Z,15.30
2018-10-18T08:59:42.799Z,15.30
2018-10-18T09:02:22.472Z,15.30
2018-10-18T09:05:02.461Z,15.30
2018-10-18T09:07:36.584Z,15.40
2018-10-18T09:10:11.087Z,15.40
2018-10-18T09:12:50.933Z,15.50
2018-10-18T09:15:24.545Z,15.60
2018-10-18T09:17:58.746Z,15.50
2018-10-18T09:20:32.505Z,15.60
2018-10-18T09:23:07.117Z,15.70
2018-10-18T09:25:47.042Z,15.70
2018-10-18T09:28:20.774Z,15.70
2018-10-18T09:30:54.344Z,15.60
2018-10-18T09:33:27.810Z,15.60
2018-10-18T09:36:01.600Z,15.50
2018-10-18T09:38:35.105Z,15.50
2018-10-18T09:41:15.181Z,15.50
2018-10-18T09:44:02.122Z,15.60
2018-10-18T09:46:37.620Z,15.60
2018-10-18T09:49:11.321Z,15.70
2018-10-18T09:51:51.233Z,15.80
2018-10-18T09:54:31.150Z,15.90
2018-10-18T09:57:04.968Z,15.90
2018-10-18T09:59:44.903Z,15.90
2018-10-18T10:02:24.340Z,15.90
2018-10-18T10:04:58.865Z,15.80
2018-10-18T10:07:33.546Z,15.70
2018-10-18T10:10:13.501Z,15.50
2018-10-18T10:12:47.118Z,15.50
2018-10-18T10:15:20.641Z,15.50
2018-10-18T10:17:54.276Z,15.50
2018-10-18T10:20:27.825Z,15.60
2018-10-18T10:23:02.409Z,15.70
2018-10-18T10:25:42.361Z,15.70
2018-10-18T10:28:22.440Z,15.70
2018-10-18T10:30:56.014Z,15.70
2018-10-18T10:33:35.842Z,15.70
2018-10-18T10:36:15.370Z,15.70
2018-10-18T10:38:55.246Z,15.70
2018-10-18T10:41:28.749Z,15.80
2018-10-18T10:44:05.459Z,15.80
2018-10-18T10:46:40.210Z,15.90
2018-10-18T10:49:13.806Z,16.00
2018-10-18T10:51:47.065Z,16.10
2018-10-18T10:54:20.791Z,16.20
2018-10-18T10:56:54.458Z,16.20
2018-10-18T10:59:34.249Z,16.30
2018-10-18T11:02:07.710Z,16.20
2018-10-18T11:04:41.028Z,16.20
2018-10-18T11:07:14.634Z,16.30
2018-10-18T11:09:48.210Z,16.30
2018-10-18T11:12:28.216Z,16.40
2018-10-18T11:15:01.641Z,16.40
2018-10-18T11:17:35.086Z,16.40
2018-10-18T11:20:09.583Z,16.40
2018-10-18T11:22:49.405Z,16.40
2018-10-18T11:25:29.253Z,16.50
2018-10-18T11:28:03.109Z,16.60
2018-10-18T11:30:36.394Z,16.60
2018-10-18T11:33:11.381Z,16.60
2018-10-18T11:35:45.033Z,16.50
2018-10-18T11:38:18.602Z,16.50
2018-10-18T11:40:58.302Z,16.40
2018-10-18T11:43:38.137Z,16.30
2018-10-18T11:46:18.065Z,16.30
2018-10-18T11:48:51.549Z,16.40
2018-10-18T11:51:25.189Z,16.50
2018-10-18T11:54:05.107Z,16.70
2018-10-18T11:56:38.500Z,16.90
2018-10-18T11:59:12.064Z,16.80
2018-10-18T12:01:45.493Z,16.80
2018-10-18T12:04:20.037Z,16.60
2018-10-18T12:06:53.577Z,16.50
2018-10-18T12:09:27.280Z,16.40
2018-10-18T12:12:00.746Z,16.40
2018-10-18T12:14:34.243Z,16.30
2018-10-18T12:17:14.229Z,16.30
2018-10-18T12:19:53.979Z,16.30
2018-10-18T12:22:34.073Z,16.40
2018-10-18T12:25:07.752Z,16.50
2018-10-18T12:27:41.489Z,16.70
2018-10-18T12:30:15.273Z,16.70
2018-10-18T12:32:49.725Z,16.80
2018-10-18T12:35:23.301Z,16.90
2018-10-18T12:38:03.423Z,16.90
2018-10-18T12:40:37.089Z,16.90
2018-10-18T12:43:16.790Z,16.90
2018-10-18T12:45:50.275Z,16.90
2018-10-18T12:48:24.931Z,16.90
2018-10-18T12:50:58.456Z,16.80
2018-10-18T12:53:31.845Z,16.80
2018-10-18T12:56:06.376Z,16.80
2018-10-18T12:58:46.082Z,16.90
2018-10-18T13:01:19.509Z,16.90
2018-10-18T13:03:53.252Z,17.00
2018-10-18T13:06:26.741Z,17.00
2018-10-18T13:09:00.256Z,17.10
2018-10-18T13:11:34.712Z,17.20
2018-10-18T13:14:08.229Z,17.20
2018-10-18T13:16:41.709Z,17.30
2018-10-18T13:19:15.326Z,17.50
2018-10-18T13:21:49.825Z,17.60
2018-10-18T13:24:29.569Z,17.60
2018-10-18T13:27:03.249Z,17.70
2018-10-18T13:29:36.766Z,17.60
2018-10-18T13:32:12.264Z,17.70
2018-10-18T13:34:45.781Z,17.80
2018-10-18T13:37:19.091Z,17.90
2018-10-18T13:39:52.589Z,18.00
2018-10-18T13:42:26.184Z,18.10
2018-10-18T13:45:06.456Z,18.10
2018-10-18T13:47:41.093Z,18.00
2018-10-18T13:50:14.789Z,18.00
2018-10-18T13:52:54.640Z,18.90
2018-10-18T13:55:28.151Z,20.10
2018-10-18T13:58:01.656Z,20.40
2018-10-18T14:00:35.185Z,21.10
2018-10-18T14:03:08.682Z,21.90
2018-10-18T14:05:43.364Z,22.90
2018-10-18T14:08:16.726Z,23.70
2018-10-18T14:10:50.215Z,24.70
2018-10-18T14:13:30.113Z,25.60
2018-10-18T14:16:10.184Z,25.70
2018-10-18T14:18:44.585Z,26.10
2018-10-18T14:21:18.100Z,26.10
2018-10-18T14:23:52.561Z,26.00
2018-10-18T14:26:27.246Z,26.00
2018-10-18T14:29:01.718Z,24.90
2018-10-18T14:31:35.383Z,23.40
2018-10-18T14:34:09.152Z,22.20
2018-10-18T14:36:49.164Z,21.00
2018-10-18T14:39:22.614Z,20.10
2018-10-18T14:41:56.053Z,19.40
2018-10-18T14:44:29.742Z,19.10
2018-10-18T14:47:03.130Z,19.00
2018-10-18T14:49:36.603Z,18.80
2018-10-18T14:52:16.736Z,18.50
2018-10-18T14:54:50.413Z,18.40
2018-10-18T14:57:23.934Z,18.20
2018-10-18T14:59:57.549Z,18.20
2018-10-18T15:02:30.884Z,18.00
2018-10-18T15:05:05.706Z,18.00
2018-10-18T15:07:39.813Z,17.90
2018-10-18T15:10:13.954Z,17.80
2018-10-18T15:12:47.569Z,17.70
2018-10-18T15:15:27.368Z,17.70
2018-10-18T15:18:00.989Z,17.60
2018-10-18T15:20:40.959Z,17.50
2018-10-18T15:23:14.650Z,17.50
2018-10-18T15:25:48.411Z,17.40
2018-10-18T15:28:21.565Z,17.40
2018-10-18T15:31:01.525Z,17.30
2018-10-18T15:33:34.921Z,17.30
2018-10-18T15:36:14.868Z,17.30
2018-10-18T15:38:48.348Z,17.20
2018-10-18T15:41:28.720Z,17.10
2018-10-18T15:44:03.227Z,17.10
2018-10-18T15:46:37.303Z,17.00
2018-10-18T15:49:10.728Z,16.90
2018-10-18T15:51:44.273Z,16.80
2018-10-18T15:54:24.257Z,16.70
2018-10-18T15:56:57.779Z,16.70
2018-10-18T15:59:31.222Z,16.60
2018-10-18T16:02:05.282Z,16.50
2018-10-18T16:04:45.129Z,16.30
2018-10-18T16:07:18.663Z,16.30
2018-10-18T16:09:52.085Z,16.20
2018-10-18T16:12:25.664Z,16.20
2018-10-18T16:14:59.169Z,16.10
2018-10-18T16:17:33.574Z,16.00
2018-10-18T16:20:08.238Z,15.90
2018-10-18T16:22:41.621Z,15.90
2018-10-18T16:25:21.440Z,15.80
2018-10-18T16:27:55.534Z,15.80
2018-10-18T16:30:29.147Z,15.70
2018-10-18T16:33:09.292Z,15.60
2018-10-18T16:35:42.703Z,15.50
2018-10-18T16:38:22.621Z,15.40
2018-10-18T16:41:02.630Z,15.30
2018-10-18T16:43:42.298Z,15.30
2018-10-18T16:46:22.227Z,15.30
2018-10-18T16:48:55.621Z,15.20
2018-10-18T16:51:29.216Z,15.20
2018-10-18T16:54:02.901Z,15.20
2018-10-18T16:56:36.501Z,15.20
2018-10-18T16:59:11.065Z,15.20
2018-10-18T17:01:44.672Z,15.20
2018-10-18T17:04:24.673Z,15.10
2018-10-18T17:06:58.214Z,15.20
2018-10-18T17:09:38.081Z,15.20
2018-10-18T17:12:11.679Z,15.30
2018-10-18T17:14:45.255Z,15.20
2018-10-18T17:17:18.875Z,15.20
2018-10-18T17:19:52.690Z,15.20
2018-10-18T17:22:26.186Z,15.20
2018-10-18T17:25:00.652Z,15.10
2018-10-18T17:27:40.467Z,15.10
2018-10-18T17:30:14.145Z,15.00
2018-10-18T17:32:47.795Z,14.90
2018-10-18T17:35:21.330Z,14.90
2018-10-18T17:37:54.896Z,14.80
2018-10-18T17:40:28.450Z,14.80
2018-10-18T17:43:03.271Z,14.70
2018-10-18T17:45:43.197Z,14.70
2018-10-18T17:48:17.804Z,14.60
2018-10-18T17:50:51.378Z,14.50
2018-10-18T17:53:24.959Z,14.50
2018-10-18T17:55:58.682Z,14.40
2018-10-18T17:58:32.380Z,14.40
2018-10-18T18:01:12.485Z,14.30
2018-10-18T18:03:52.377Z,14.30
2018-10-18T18:06:26.364Z,14.20
2018-10-18T18:11:40.057Z,14.10
2018-10-18T18:14:19.820Z,14.00
2018-10-18T18:16:53.571Z,13.90
2018-10-18T18:19:27.298Z,13.80
2018-10-18T18:22:01.988Z,13.70
2018-10-18T18:24:35.501Z,13.60
2018-10-18T18:27:10.304Z,13.60
2018-10-18T18:29:43.750Z,13.60
2018-10-18T18:32:23.800Z,13.60
2018-10-18T18:35:04.303Z,13.60
2018-10-18T18:37:37.952Z,13.60
2018-10-18T18:40:11.767Z,13.60
2018-10-18T18:42:51.908Z,13.60
2018-10-18T18:45:30.132Z,13.50
2018-10-18T18:48:04.598Z,13.50
2018-10-18T18:50:38.258Z,13.50
2018-10-18T18:53:11.910Z,13.40
2018-10-18T18:55:52.167Z,13.40
2018-10-18T18:58:25.811Z,13.40
2018-10-18T19:01:05.688Z,13.40
2018-10-18T19:03:39.526Z,13.40
2018-10-18T19:06:19.465Z,13.30
2018-10-18T19:08:53.115Z,13.30
2018-10-18T19:11:26.820Z,13.30
2018-10-18T19:14:00.450Z,13.20
2018-10-18T19:16:34.114Z,13.20
2018-10-18T19:19:07.683Z,13.10
2018-10-18T19:21:47.521Z,13.10
2018-10-18T19:24:21.082Z,13.10
2018-10-18T19:26:56.634Z,13.00
2018-10-18T19:29:31.338Z,13.00
2018-10-18T19:32:05.009Z,12.90
2018-10-18T19:34:45.292Z,12.80
2018-10-18T19:37:18.995Z,12.80
2018-10-18T19:39:52.451Z,12.70
2018-10-18T19:42:26.158Z,12.70
2018-10-18T19:45:06.514Z,12.70
2018-10-18T19:47:40.181Z,12.60
2018-10-18T19:50:13.859Z,12.60
2018-10-18T19:52:47.353Z,12.50
2018-10-18T19:55:20.972Z,12.50
2018-10-18T19:57:54.521Z,12.40
2018-10-18T20:00:33.395Z,12.30
2018-10-18T20:03:06.884Z,12.20
2018-10-18T20:05:46.847Z,12.10
2018-10-18T20:08:26.624Z,12.10
2018-10-18T20:11:00.217Z,12.10
2018-10-18T20:13:33.621Z,12.00
2018-10-18T20:16:13.525Z,12.00
2018-10-18T20:18:46.887Z,11.90
2018-10-18T20:21:20.454Z,11.90
2018-10-18T20:23:53.998Z,11.90
2018-10-18T20:26:27.885Z,11.80
2018-10-18T20:29:01.217Z,11.70
2018-10-18T20:31:35.843Z,11.70
2018-10-18T20:34:11.621Z,11.70
2018-10-18T20:36:51.662Z,11.60
2018-10-18T20:39:25.277Z,11.60
2018-10-18T20:41:59.776Z,11.50
2018-10-18T20:44:33.254Z,11.60
2018-10-18T20:47:06.931Z,11.60
2018-10-18T20:49:46.645Z,11.60
2018-10-18T20:52:20.269Z,11.60
2018-10-18T20:54:53.779Z,11.50
2018-10-18T20:57:28.295Z,11.60
2018-10-18T21:00:08.575Z,11.50
2018-10-18T21:02:42.269Z,11.50
2018-10-18T21:05:22.098Z,11.50
2018-10-18T21:07:55.674Z,11.50
2018-10-18T21:10:35.766Z,11.50
2018-10-18T21:13:15.554Z,11.50
2018-10-18T21:15:49.164Z,11.50
2018-10-18T21:18:29.230Z,11.50
2018-10-18T21:21:02.982Z,11.50
2018-10-18T21:23:37.396Z,11.60
2018-10-18T21:26:10.956Z,11.60
2018-10-18T21:28:44.399Z,11.60
2018-10-18T21:31:17.948Z,11.60
2018-10-18T21:33:57.848Z,11.60
2018-10-18T21:36:31.441Z,11.60
2018-10-18T21:39:06.012Z,11.60
2018-10-18T21:41:39.557Z,11.70
2018-10-18T21:44:13.051Z,11.70
2018-10-18T21:46:47.805Z,11.80
2018-10-18T21:49:21.463Z,11.80
2018-10-18T21:51:55.313Z,11.80
2018-10-18T21:54:35.193Z,11.80
2018-10-18T21:57:08.842Z,11.90
2018-10-18T21:59:48.739Z,11.90
2018-10-18T22:02:22.389Z,11.90
2018-10-18T22:04:56.149Z,11.90
2018-10-18T22:07:35.901Z,11.80
2018-10-18T22:10:12.423Z,11.90
2018-10-18T22:12:46.059Z,11.90
2018-10-18T22:15:19.674Z,11.90
2018-10-18T22:17:53.363Z,11.90
2018-10-18T22:20:26.953Z,11.90
2018-10-18T22:23:01.022Z,11.90
2018-10-18T22:25:34.572Z,11.90
2018-10-18T22:28:14.596Z,12.00
2018-10-18T22:30:49.363Z,12.00
2018-10-18T22:33:22.934Z,11.90
2018-10-18T22:35:57.720Z,12.00
2018-10-18T22:38:31.552Z,12.00
2018-10-18T22:41:05.926Z,12.00
2018-10-18T22:43:39.490Z,12.00
2018-10-18T22:46:13.055Z,11.90
2018-10-18T22:48:46.527Z,11.90
2018-10-18T22:51:20.094Z,11.90
2018-10-18T22:53:53.733Z,12.00
2018-10-18T22:56:27.412Z,11.90
2018-10-18T22:59:00.929Z,12.00
2018-10-18T23:01:34.383Z,12.00
2018-10-18T23:04:07.998Z,11.90
2018-10-18T23:06:45.750Z,11.90
2018-10-18T23:09:21.462Z,11.90
2018-10-18T23:12:01.460Z,11.90
2018-10-18T23:17:16.715Z,11.90
2018-10-18T23:19:50.351Z,11.90
2018-10-18T23:22:23.894Z,11.90
2018-10-18T23:25:04.049Z,11.90
2018-10-18T23:27:37.551Z,11.90
2018-10-18T23:30:12.184Z,11.90
2018-10-18T23:32:45.682Z,11.80
2018-10-18T23:35:19.261Z,11.80
2018-10-18T23:37:53.010Z,11.80
2018-10-18T23:40:26.462Z,11.80
2018-10-18T23:42:59.964Z,11.80
2018-10-18T23:45:33.375Z,11.70
2018-10-18T23:48:07.070Z,11.70
2018-10-18T23:50:40.561Z,11.70
2018-10-18T23:53:15.257Z,11.70
2018-10-18T23:55:55.041Z,11.80
2018-10-18T23:58:28.535Z,11.80
